sensor_id;sensor_type;location;lat;lon;timestamp;pressure;altitude;pressure_sealevel;temperature;humidity
56042;BME280;48756;41.374;2.066;2022-12-16T00:00:28;99519.28;;;12.57;91.17
56042;BME280;48756;41.374;2.066;2022-12-16T00:02:54;99516.09;;;12.49;93.47
56042;BME280;48756;41.374;2.066;2022-12-16T00:05:19;99515.06;;;12.30;93.91
56042;BME280;48756;41.374;2.066;2022-12-16T00:07:45;99507.41;;;12.25;94.23
56042;BME280;48756;41.374;2.066;2022-12-16T00:10:11;99509.94;;;12.27;94.32
56042;BME280;48756;41.374;2.066;2022-12-16T00:12:36;99513.28;;;12.31;93.96
56042;BME280;48756;41.374;2.066;2022-12-16T00:15:01;99507.84;;;12.37;92.60
56042;BME280;48756;41.374;2.066;2022-12-16T00:17:27;99512.28;;;12.35;92.21
56042;BME280;48756;41.374;2.066;2022-12-16T00:19:52;99517.50;;;12.35;93.17
56042;BME280;48756;41.374;2.066;2022-12-16T00:22:18;99513.88;;;12.39;92.48
56042;BME280;48756;41.374;2.066;2022-12-16T00:24:43;99522.09;;;12.28;93.91
56042;BME280;48756;41.374;2.066;2022-12-16T00:27:08;99513.88;;;12.39;92.96
56042;BME280;48756;41.374;2.066;2022-12-16T00:29:34;99521.94;;;12.33;93.96
56042;BME280;48756;41.374;2.066;2022-12-16T00:31:59;99521.25;;;12.27;94.15
56042;BME280;48756;41.374;2.066;2022-12-16T00:34:24;99520.41;;;12.27;92.88
56042;BME280;48756;41.374;2.066;2022-12-16T00:36:50;99510.56;;;12.34;92.71
56042;BME280;48756;41.374;2.066;2022-12-16T00:39:15;99513.59;;;12.21;93.35
56042;BME280;48756;41.374;2.066;2022-12-16T00:41:41;99514.69;;;12.16;94.53
56042;BME280;48756;41.374;2.066;2022-12-16T00:44:06;99509.72;;;12.33;92.93
56042;BME280;48756;41.374;2.066;2022-12-16T00:46:32;99513.19;;;12.34;92.54
56042;BME280;48756;41.374;2.066;2022-12-16T00:48:57;99512.63;;;12.25;93.18
56042;BME280;48756;41.374;2.066;2022-12-16T00:51:22;99518.16;;;12.16;93.27
56042;BME280;48756;41.374;2.066;2022-12-16T00:53:48;99515.34;;;12.22;92.18
56042;BME280;48756;41.374;2.066;2022-12-16T00:56:13;99524.34;;;12.14;91.52
56042;BME280;48756;41.374;2.066;2022-12-16T00:58:38;99521.88;;;12.34;90.27
56042;BME280;48756;41.374;2.066;2022-12-16T01:01:04;99525.69;;;12.49;87.98
56042;BME280;48756;41.374;2.066;2022-12-16T01:03:29;99520.22;;;12.78;86.69
56042;BME280;48756;41.374;2.066;2022-12-16T01:05:55;99528.25;;;12.97;85.77
56042;BME280;48756;41.374;2.066;2022-12-16T01:08:20;99525.50;;;13.00;84.43
56042;BME280;48756;41.374;2.066;2022-12-16T01:10:53;99537.59;;;13.26;83.03
56042;BME280;48756;41.374;2.066;2022-12-16T01:13:18;99536.44;;;13.10;83.47
56042;BME280;48756;41.374;2.066;2022-12-16T01:15:47;99538.22;;;13.09;82.85
56042;BME280;48756;41.374;2.066;2022-12-16T01:18:14;99543.13;;;13.18;82.12
56042;BME280;48756;41.374;2.066;2022-12-16T01:20:40;99537.28;;;13.10;82.91
56042;BME280;48756;41.374;2.066;2022-12-16T01:23:05;99554.03;;;13.06;82.90
56042;BME280;48756;41.374;2.066;2022-12-16T01:25:30;99551.41;;;13.06;83.09
56042;BME280;48756;41.374;2.066;2022-12-16T01:27:56;99556.63;;;13.06;81.92
56042;BME280;48756;41.374;2.066;2022-12-16T01:30:21;99549.47;;;13.11;82.33
56042;BME280;48756;41.374;2.066;2022-12-16T01:32:47;99558.13;;;13.13;81.57
56042;BME280;48756;41.374;2.066;2022-12-16T01:35:12;99552.78;;;13.16;81.50
56042;BME280;48756;41.374;2.066;2022-12-16T01:37:38;99550.06;;;13.20;81.41
56042;BME280;48756;41.374;2.066;2022-12-16T01:40:04;99553.69;;;13.15;81.55
56042;BME280;48756;41.374;2.066;2022-12-16T01:42:29;99553.75;;;13.14;81.98
56042;BME280;48756;41.374;2.066;2022-12-16T01:44:57;99556.22;;;13.18;81.72
56042;BME280;48756;41.374;2.066;2022-12-16T01:47:42;99564.47;;;13.06;81.42
56042;BME280;48756;41.374;2.066;2022-12-16T01:50:11;99567.63;;;13.16;81.30
56042;BME280;48756;41.374;2.066;2022-12-16T01:52:42;99575.59;;;13.13;81.86
56042;BME280;48756;41.374;2.066;2022-12-16T01:55:14;99582.59;;;13.11;81.81
56042;BME280;48756;41.374;2.066;2022-12-16T01:57:47;99583.75;;;13.04;81.63
56042;BME280;48756;41.374;2.066;2022-12-16T02:00:14;99595.38;;;12.97;82.58
56042;BME280;48756;41.374;2.066;2022-12-16T02:02:42;99592.16;;;12.88;83.64
56042;BME280;48756;41.374;2.066;2022-12-16T02:05:09;99603.50;;;12.64;85.60
56042;BME280;48756;41.374;2.066;2022-12-16T02:15:44;99614.53;;;12.49;87.20
56042;BME280;48756;41.374;2.066;2022-12-16T02:18:18;99621.94;;;12.61;86.31
56042;BME280;48756;41.374;2.066;2022-12-16T02:36:23;99633.00;;;12.93;82.64
56042;BME280;48756;41.374;2.066;2022-12-16T02:39:00;99630.16;;;12.99;84.27
56042;BME280;48756;41.374;2.066;2022-12-16T02:44:06;99640.72;;;12.96;82.86
56042;BME280;48756;41.374;2.066;2022-12-16T02:46:37;99639.66;;;13.01;82.65
56042;BME280;48756;41.374;2.066;2022-12-16T02:49:04;99653.22;;;13.11;82.77
56042;BME280;48756;41.374;2.066;2022-12-16T02:51:30;99657.03;;;13.02;81.58
56042;BME280;48756;41.374;2.066;2022-12-16T02:53:57;99662.88;;;13.09;81.37
56042;BME280;48756;41.374;2.066;2022-12-16T02:58:54;99669.31;;;13.00;80.29
56042;BME280;48756;41.374;2.066;2022-12-16T03:04:21;99672.66;;;13.04;81.06
56042;BME280;48756;41.374;2.066;2022-12-16T03:06:50;99675.97;;;13.09;81.29
56042;BME280;48756;41.374;2.066;2022-12-16T03:09:22;99677.00;;;13.05;81.35
56042;BME280;48756;41.374;2.066;2022-12-16T03:11:48;99672.44;;;13.10;80.84
56042;BME280;48756;41.374;2.066;2022-12-16T03:14:15;99670.06;;;13.04;82.74
56042;BME280;48756;41.374;2.066;2022-12-16T03:16:43;99678.25;;;12.95;81.86
56042;BME280;48756;41.374;2.066;2022-12-16T03:19:09;99680.97;;;12.92;82.66
56042;BME280;48756;41.374;2.066;2022-12-16T03:21:56;99680.81;;;12.96;83.67
56042;BME280;48756;41.374;2.066;2022-12-16T03:24:24;99685.72;;;12.80;83.55
56042;BME280;48756;41.374;2.066;2022-12-16T03:26:53;99690.84;;;12.83;83.64
56042;BME280;48756;41.374;2.066;2022-12-16T03:29:24;99681.28;;;12.82;81.66
56042;BME280;48756;41.374;2.066;2022-12-16T03:34:24;99686.84;;;12.73;84.01
56042;BME280;48756;41.374;2.066;2022-12-16T03:36:53;99688.78;;;12.68;85.05
56042;BME280;48756;41.374;2.066;2022-12-16T03:39:21;99676.00;;;12.59;84.69
56042;BME280;48756;41.374;2.066;2022-12-16T03:41:50;99680.09;;;12.68;84.87
56042;BME280;48756;41.374;2.066;2022-12-16T03:44:18;99689.81;;;12.63;85.01
56042;BME280;48756;41.374;2.066;2022-12-16T03:46:46;99687.47;;;12.55;85.73
56042;BME280;48756;41.374;2.066;2022-12-16T03:49:11;99690.25;;;12.50;85.67
56042;BME280;48756;41.374;2.066;2022-12-16T03:51:36;99692.75;;;12.53;85.10
56042;BME280;48756;41.374;2.066;2022-12-16T03:54:02;99688.44;;;12.52;85.09
56042;BME280;48756;41.374;2.066;2022-12-16T03:56:27;99692.75;;;12.53;85.20
56042;BME280;48756;41.374;2.066;2022-12-16T03:58:52;99695.78;;;12.41;85.84
56042;BME280;48756;41.374;2.066;2022-12-16T04:01:18;99698.44;;;12.40;85.16
56042;BME280;48756;41.374;2.066;2022-12-16T04:03:43;99699.56;;;12.33;85.43
56042;BME280;48756;41.374;2.066;2022-12-16T04:06:11;99688.59;;;12.21;85.97
56042;BME280;48756;41.374;2.066;2022-12-16T04:08:37;99695.06;;;12.10;87.03
56042;BME280;48756;41.374;2.066;2022-12-16T04:11:02;99690.81;;;12.07;86.94
56042;BME280;48756;41.374;2.066;2022-12-16T04:13:46;99703.38;;;12.22;86.10
56042;BME280;48756;41.374;2.066;2022-12-16T04:16:31;99700.50;;;12.30;86.06
56042;BME280;48756;41.374;2.066;2022-12-16T04:19:17;99697.09;;;12.28;86.24
56042;BME280;48756;41.374;2.066;2022-12-16T04:22:02;99696.28;;;12.26;85.23
56042;BME280;48756;41.374;2.066;2022-12-16T04:24:46;99706.84;;;12.23;86.49
56042;BME280;48756;41.374;2.066;2022-12-16T04:27:11;99705.63;;;12.33;85.99
56042;BME280;48756;41.374;2.066;2022-12-16T04:29:49;99712.56;;;12.34;86.15
56042;BME280;48756;41.374;2.066;2022-12-16T04:32:33;99718.22;;;12.20;86.47
56042;BME280;48756;41.374;2.066;2022-12-16T04:35:19;99729.44;;;12.24;86.79
56042;BME280;48756;41.374;2.066;2022-12-16T04:38:03;99736.50;;;12.20;86.62
56042;BME280;48756;41.374;2.066;2022-12-16T04:40:47;99734.56;;;11.99;86.60
56042;BME280;48756;41.374;2.066;2022-12-16T04:43:31;99743.53;;;11.90;87.47
56042;BME280;48756;41.374;2.066;2022-12-16T04:46:14;99744.16;;;11.99;87.60
56042;BME280;48756;41.374;2.066;2022-12-16T04:48:58;99747.72;;;11.96;86.92
56042;BME280;48756;41.374;2.066;2022-12-16T04:51:43;99746.41;;;11.83;87.70
56042;BME280;48756;41.374;2.066;2022-12-16T04:54:26;99754.22;;;11.83;87.48
56042;BME280;48756;41.374;2.066;2022-12-16T04:57:11;99755.53;;;11.66;89.11
56042;BME280;48756;41.374;2.066;2022-12-16T04:59:54;99755.81;;;11.57;89.75
56042;BME280;48756;41.374;2.066;2022-12-16T05:02:39;99766.88;;;11.65;89.76
56042;BME280;48756;41.374;2.066;2022-12-16T05:05:22;99758.34;;;11.60;89.36
56042;BME280;48756;41.374;2.066;2022-12-16T05:08:06;99767.31;;;11.50;90.71
56042;BME280;48756;41.374;2.066;2022-12-16T05:10:50;99767.41;;;11.47;91.17
56042;BME280;48756;41.374;2.066;2022-12-16T05:13:34;99763.19;;;11.43;90.38
56042;BME280;48756;41.374;2.066;2022-12-16T05:16:18;99765.78;;;11.43;91.11
56042;BME280;48756;41.374;2.066;2022-12-16T05:19:02;99768.34;;;11.45;90.90
56042;BME280;48756;41.374;2.066;2022-12-16T05:21:46;99770.06;;;11.46;89.90
56042;BME280;48756;41.374;2.066;2022-12-16T05:24:30;99776.41;;;11.37;91.95
56042;BME280;48756;41.374;2.066;2022-12-16T05:27:14;99773.19;;;11.27;91.47
56042;BME280;48756;41.374;2.066;2022-12-16T05:29:58;99781.72;;;11.34;91.75
56042;BME280;48756;41.374;2.066;2022-12-16T05:32:42;99787.78;;;11.34;91.89
56042;BME280;48756;41.374;2.066;2022-12-16T05:35:26;99789.69;;;11.28;91.45
56042;BME280;48756;41.374;2.066;2022-12-16T05:38:10;99794.72;;;11.35;91.02
56042;BME280;48756;41.374;2.066;2022-12-16T05:41:11;99790.03;;;11.47;90.85
56042;BME280;48756;41.374;2.066;2022-12-16T05:43:55;99801.38;;;11.46;90.27
56042;BME280;48756;41.374;2.066;2022-12-16T05:46:39;99808.28;;;11.47;89.66
56042;BME280;48756;41.374;2.066;2022-12-16T05:49:23;99812.28;;;11.27;89.81
56042;BME280;48756;41.374;2.066;2022-12-16T05:52:07;99821.97;;;11.24;91.78
56042;BME280;48756;41.374;2.066;2022-12-16T05:54:51;99830.69;;;11.23;90.84
56042;BME280;48756;41.374;2.066;2022-12-16T05:57:35;99835.25;;;11.15;92.81
56042;BME280;48756;41.374;2.066;2022-12-16T06:00:19;99827.56;;;11.10;91.39
56042;BME280;48756;41.374;2.066;2022-12-16T06:03:03;99829.00;;;10.86;93.21
56042;BME280;48756;41.374;2.066;2022-12-16T06:05:47;99825.28;;;10.61;93.57
56042;BME280;48756;41.374;2.066;2022-12-16T06:08:32;99835.19;;;10.82;93.83
56042;BME280;48756;41.374;2.066;2022-12-16T06:11:15;99834.78;;;10.65;93.95
56042;BME280;48756;41.374;2.066;2022-12-16T06:14:02;99844.59;;;10.89;93.28
56042;BME280;48756;41.374;2.066;2022-12-16T06:16:46;99846.88;;;11.01;92.18
56042;BME280;48756;41.374;2.066;2022-12-16T06:19:30;99851.97;;;11.06;92.09
56042;BME280;48756;41.374;2.066;2022-12-16T06:22:14;99846.84;;;11.03;92.98
56042;BME280;48756;41.374;2.066;2022-12-16T06:24:58;99847.41;;;10.80;93.70
56042;BME280;48756;41.374;2.066;2022-12-16T06:27:42;99849.03;;;10.84;93.54
56042;BME280;48756;41.374;2.066;2022-12-16T06:30:26;99852.41;;;10.89;94.34
56042;BME280;48756;41.374;2.066;2022-12-16T06:33:10;99848.13;;;10.87;93.23
56042;BME280;48756;41.374;2.066;2022-12-16T06:35:54;99854.25;;;10.84;93.34
56042;BME280;48756;41.374;2.066;2022-12-16T06:38:38;99849.47;;;10.67;94.86
56042;BME280;48756;41.374;2.066;2022-12-16T06:41:22;99854.28;;;10.47;95.59
56042;BME280;48756;41.374;2.066;2022-12-16T06:44:05;99860.34;;;10.48;95.95
56042;BME280;48756;41.374;2.066;2022-12-16T06:46:49;99869.91;;;10.47;97.10
56042;BME280;48756;41.374;2.066;2022-12-16T06:49:33;99879.03;;;10.66;95.58
56042;BME280;48756;41.374;2.066;2022-12-16T06:52:17;99885.91;;;10.69;95.68
56042;BME280;48756;41.374;2.066;2022-12-16T06:55:01;99882.25;;;10.76;95.14
56042;BME280;48756;41.374;2.066;2022-12-16T06:57:45;99890.53;;;10.93;93.69
56042;BME280;48756;41.374;2.066;2022-12-16T07:00:29;99892.50;;;10.84;93.69
56042;BME280;48756;41.374;2.066;2022-12-16T07:03:13;99896.44;;;10.64;94.46
56042;BME280;48756;41.374;2.066;2022-12-16T07:05:57;99895.59;;;10.62;95.16
56042;BME280;48756;41.374;2.066;2022-12-16T07:08:41;99903.13;;;10.36;96.36
56042;BME280;48756;41.374;2.066;2022-12-16T07:11:25;99907.75;;;10.25;97.34
56042;BME280;48756;41.374;2.066;2022-12-16T07:14:09;99909.44;;;10.26;97.55
56042;BME280;48756;41.374;2.066;2022-12-16T07:16:53;99913.00;;;10.20;97.80
56042;BME280;48756;41.374;2.066;2022-12-16T07:19:37;99917.59;;;10.07;99.05
56042;BME280;48756;41.374;2.066;2022-12-16T07:22:21;99917.28;;;10.24;98.27
56042;BME280;48756;41.374;2.066;2022-12-16T07:25:05;99920.16;;;10.09;98.28
56042;BME280;48756;41.374;2.066;2022-12-16T07:27:50;99921.75;;;10.16;99.30
56042;BME280;48756;41.374;2.066;2022-12-16T07:30:34;99913.69;;;10.30;98.45
56042;BME280;48756;41.374;2.066;2022-12-16T07:33:18;99922.09;;;10.44;97.72
56042;BME280;48756;41.374;2.066;2022-12-16T07:36:02;99919.78;;;10.29;97.60
56042;BME280;48756;41.374;2.066;2022-12-16T07:38:46;99927.47;;;10.35;98.65
56042;BME280;48756;41.374;2.066;2022-12-16T07:41:30;99934.88;;;10.53;98.77
56042;BME280;48756;41.374;2.066;2022-12-16T07:44:14;99933.13;;;10.54;97.13
56042;BME280;48756;41.374;2.066;2022-12-16T07:46:58;99944.44;;;10.53;96.85
56042;BME280;48756;41.374;2.066;2022-12-16T07:49:41;99941.59;;;10.65;96.41
56042;BME280;48756;41.374;2.066;2022-12-16T07:52:25;99956.72;;;10.48;96.43
56042;BME280;48756;41.374;2.066;2022-12-16T07:55:12;99946.88;;;10.60;96.33
56042;BME280;48756;41.374;2.066;2022-12-16T07:57:57;99952.91;;;10.62;96.63
56042;BME280;48756;41.374;2.066;2022-12-16T08:00:41;99957.72;;;10.81;96.86
56042;BME280;48756;41.374;2.066;2022-12-16T08:03:25;99960.06;;;10.93;94.58
56042;BME280;48756;41.374;2.066;2022-12-16T08:06:09;99961.41;;;11.09;93.37
56042;BME280;48756;41.374;2.066;2022-12-16T08:08:54;99970.47;;;11.28;92.93
56042;BME280;48756;41.374;2.066;2022-12-16T08:11:38;99979.41;;;11.55;92.04
56042;BME280;48756;41.374;2.066;2022-12-16T08:14:28;99974.72;;;11.34;92.84
56042;BME280;48756;41.374;2.066;2022-12-16T08:17:12;99985.41;;;11.59;89.81
56042;BME280;48756;41.374;2.066;2022-12-16T08:19:56;99989.50;;;11.68;90.22
56042;BME280;48756;41.374;2.066;2022-12-16T08:22:40;99999.78;;;11.74;90.41
56042;BME280;48756;41.374;2.066;2022-12-16T08:25:27;100003.19;;;11.76;90.84
56042;BME280;48756;41.374;2.066;2022-12-16T08:28:11;100003.00;;;11.85;88.71
56042;BME280;48756;41.374;2.066;2022-12-16T08:30:58;100007.72;;;12.05;89.51
56042;BME280;48756;41.374;2.066;2022-12-16T08:33:42;100006.03;;;12.02;89.59
56042;BME280;48756;41.374;2.066;2022-12-16T08:36:26;100017.13;;;12.10;89.80
56042;BME280;48756;41.374;2.066;2022-12-16T08:39:10;100013.84;;;12.35;88.77
56042;BME280;48756;41.374;2.066;2022-12-16T08:41:53;100021.53;;;12.39;86.86
56042;BME280;48756;41.374;2.066;2022-12-16T08:44:37;100023.59;;;12.59;87.95
56042;BME280;48756;41.374;2.066;2022-12-16T08:47:21;100034.22;;;12.53;87.88
56042;BME280;48756;41.374;2.066;2022-12-16T08:50:05;100040.84;;;12.34;88.65
56042;BME280;48756;41.374;2.066;2022-12-16T08:52:50;100051.84;;;12.46;88.43
56042;BME280;48756;41.374;2.066;2022-12-16T08:55:34;100059.78;;;12.42;87.67
56042;BME280;48756;41.374;2.066;2022-12-16T08:58:18;100061.22;;;12.22;88.77
56042;BME280;48756;41.374;2.066;2022-12-16T09:01:03;100062.53;;;12.37;88.77
56042;BME280;48756;41.374;2.066;2022-12-16T09:03:47;100066.91;;;12.68;88.08
56042;BME280;48756;41.374;2.066;2022-12-16T09:06:30;100063.59;;;12.92;86.78
56042;BME280;48756;41.374;2.066;2022-12-16T09:09:14;100073.19;;;12.92;86.01
56042;BME280;48756;41.374;2.066;2022-12-16T09:11:58;100079.00;;;13.01;86.30
56042;BME280;48756;41.374;2.066;2022-12-16T09:14:42;100080.03;;;13.25;85.17
56042;BME280;48756;41.374;2.066;2022-12-16T09:17:26;100088.50;;;13.04;85.49
56042;BME280;48756;41.374;2.066;2022-12-16T09:20:10;100075.00;;;13.19;86.14
56042;BME280;48756;41.374;2.066;2022-12-16T09:22:54;100081.41;;;13.07;84.90
56042;BME280;48756;41.374;2.066;2022-12-16T09:25:38;100085.88;;;13.04;83.91
56042;BME280;48756;41.374;2.066;2022-12-16T09:28:42;100090.47;;;13.27;83.93
56042;BME280;48756;41.374;2.066;2022-12-16T09:31:25;100089.34;;;13.34;82.88
56042;BME280;48756;41.374;2.066;2022-12-16T09:34:09;100095.13;;;13.45;82.49
56042;BME280;48756;41.374;2.066;2022-12-16T09:36:53;100097.94;;;13.39;82.12
56042;BME280;48756;41.374;2.066;2022-12-16T09:39:37;100095.44;;;13.62;81.21
56042;BME280;48756;41.374;2.066;2022-12-16T09:42:29;100106.63;;;13.67;79.88
56042;BME280;48756;41.374;2.066;2022-12-16T09:45:31;100104.44;;;13.54;79.75
56042;BME280;48756;41.374;2.066;2022-12-16T09:48:23;100098.66;;;13.70;77.28
56042;BME280;48756;41.374;2.066;2022-12-16T09:51:10;100101.75;;;13.83;77.76
56042;BME280;48756;41.374;2.066;2022-12-16T09:53:54;100106.38;;;13.75;76.95
56042;BME280;48756;41.374;2.066;2022-12-16T09:56:39;100109.03;;;14.00;77.02
56042;BME280;48756;41.374;2.066;2022-12-16T09:59:26;100107.91;;;13.82;76.57
56042;BME280;48756;41.374;2.066;2022-12-16T10:02:12;100113.75;;;13.90;76.27
56042;BME280;48756;41.374;2.066;2022-12-16T10:04:55;100107.34;;;14.24;74.98
56042;BME280;48756;41.374;2.066;2022-12-16T10:07:45;100106.13;;;14.09;75.51
56042;BME280;48756;41.374;2.066;2022-12-16T10:21:44;100109.72;;;14.81;72.78
56042;BME280;48756;41.374;2.066;2022-12-16T10:24:35;100119.94;;;14.64;72.17
56042;BME280;48756;41.374;2.066;2022-12-16T10:28:05;100112.38;;;14.56;73.13
56042;BME280;48756;41.374;2.066;2022-12-16T10:30:29;100114.03;;;14.59;72.07
56042;BME280;48756;41.374;2.066;2022-12-16T10:33:13;100110.81;;;14.76;70.63
56042;BME280;48756;41.374;2.066;2022-12-16T10:35:57;100106.00;;;14.63;71.90
56042;BME280;48756;41.374;2.066;2022-12-16T10:38:49;100110.44;;;15.08;71.11
56042;BME280;48756;41.374;2.066;2022-12-16T10:41:40;100108.50;;;14.90;70.39
56042;BME280;48756;41.374;2.066;2022-12-16T10:47:12;100114.22;;;14.78;69.64
56042;BME280;48756;41.374;2.066;2022-12-16T10:49:56;100107.88;;;14.83;70.96
56042;BME280;48756;41.374;2.066;2022-12-16T10:53:07;100114.91;;;14.83;69.69
56042;BME280;48756;41.374;2.066;2022-12-16T10:58:49;100093.06;;;14.82;69.88
56042;BME280;48756;41.374;2.066;2022-12-16T11:01:35;100086.97;;;14.82;70.60
56042;BME280;48756;41.374;2.066;2022-12-16T11:04:29;100095.63;;;15.07;69.75
56042;BME280;48756;41.374;2.066;2022-12-16T11:07:22;100093.34;;;15.21;69.21
56042;BME280;48756;41.374;2.066;2022-12-16T11:10:25;100096.03;;;15.20;68.62
56042;BME280;48756;41.374;2.066;2022-12-16T11:18:50;100089.06;;;15.19;67.05
56042;BME280;48756;41.374;2.066;2022-12-16T11:21:34;100091.06;;;15.34;66.48
56042;BME280;48756;41.374;2.066;2022-12-16T11:24:18;100079.44;;;15.41;67.37
56042;BME280;48756;41.374;2.066;2022-12-16T11:27:12;100086.28;;;15.45;66.74
56042;BME280;48756;41.374;2.066;2022-12-16T11:30:00;100079.00;;;15.52;66.12
56042;BME280;48756;41.374;2.066;2022-12-16T11:35:33;100077.91;;;15.79;65.18
56042;BME280;48756;41.374;2.066;2022-12-16T11:38:22;100082.50;;;15.74;65.04
56042;BME280;48756;41.374;2.066;2022-12-16T11:41:07;100086.63;;;15.80;64.39
56042;BME280;48756;41.374;2.066;2022-12-16T11:43:53;100084.34;;;15.72;65.03
56042;BME280;48756;41.374;2.066;2022-12-16T11:46:38;100073.31;;;16.05;63.17
56042;BME280;48756;41.374;2.066;2022-12-16T11:52:09;100080.03;;;15.91;62.23
56042;BME280;48756;41.374;2.066;2022-12-16T11:55:06;100067.53;;;15.97;62.95
56042;BME280;48756;41.374;2.066;2022-12-16T11:57:59;100077.34;;;16.13;63.17
56042;BME280;48756;41.374;2.066;2022-12-16T12:00:53;100068.63;;;16.13;62.70
56042;BME280;48756;41.374;2.066;2022-12-16T12:03:42;100071.41;;;16.49;62.98
56042;BME280;48756;41.374;2.066;2022-12-16T12:06:36;100069.41;;;16.35;61.34
56042;BME280;48756;41.374;2.066;2022-12-16T12:09:30;100066.69;;;16.37;61.73
56042;BME280;48756;41.374;2.066;2022-12-16T12:12:39;100074.16;;;16.46;60.82
56042;BME280;48756;41.374;2.066;2022-12-16T12:21:56;100070.88;;;16.61;60.18
56042;BME280;48756;41.374;2.066;2022-12-16T12:30:29;100075.75;;;16.89;59.62
56042;BME280;48756;41.374;2.066;2022-12-16T12:36:44;100073.88;;;16.52;60.75
56042;BME280;48756;41.374;2.066;2022-12-16T12:50:58;100060.53;;;17.14;58.83
56042;BME280;48756;41.374;2.066;2022-12-16T12:57:05;100075.03;;;16.67;59.31
56042;BME280;48756;41.374;2.066;2022-12-16T12:59:58;100068.94;;;16.65;59.47
56042;BME280;48756;41.374;2.066;2022-12-16T13:05:31;100063.16;;;16.96;57.90
56042;BME280;48756;41.374;2.066;2022-12-16T13:08:32;100069.94;;;16.62;58.22
56042;BME280;48756;41.374;2.066;2022-12-16T13:11:24;100069.41;;;16.74;58.30
56042;BME280;48756;41.374;2.066;2022-12-16T13:17:11;100069.31;;;16.57;58.81
56042;BME280;48756;41.374;2.066;2022-12-16T13:19:55;100067.41;;;16.40;59.66
56042;BME280;48756;41.374;2.066;2022-12-16T13:22:42;100075.31;;;16.40;59.36
56042;BME280;48756;41.374;2.066;2022-12-16T13:28:20;100076.66;;;16.49;60.39
56042;BME280;48756;41.374;2.066;2022-12-16T13:31:06;100075.09;;;16.24;59.64
56042;BME280;48756;41.374;2.066;2022-12-16T13:33:51;100075.06;;;16.65;59.19
56042;BME280;48756;41.374;2.066;2022-12-16T13:36:36;100067.06;;;16.68;56.76
56042;BME280;48756;41.374;2.066;2022-12-16T13:39:25;100074.44;;;16.60;56.92
56042;BME280;48756;41.374;2.066;2022-12-16T13:45:32;100070.28;;;16.75;55.57
56042;BME280;48756;41.374;2.066;2022-12-16T13:48:25;100071.88;;;16.59;56.33
56042;BME280;48756;41.374;2.066;2022-12-16T13:51:20;100075.94;;;16.45;55.99
56042;BME280;48756;41.374;2.066;2022-12-16T13:54:13;100080.28;;;16.46;55.62
56042;BME280;48756;41.374;2.066;2022-12-16T13:56:58;100078.44;;;16.48;55.62
56042;BME280;48756;41.374;2.066;2022-12-16T13:59:43;100090.50;;;16.54;55.87
56042;BME280;48756;41.374;2.066;2022-12-16T14:02:31;100096.00;;;16.28;55.89
56042;BME280;48756;41.374;2.066;2022-12-16T14:05:21;100097.13;;;16.42;55.67
56042;BME280;48756;41.374;2.066;2022-12-16T14:08:14;100093.72;;;16.20;55.71
56042;BME280;48756;41.374;2.066;2022-12-16T14:11:00;100101.59;;;16.40;55.38
56042;BME280;48756;41.374;2.066;2022-12-16T14:13:46;100102.97;;;16.49;55.03
56042;BME280;48756;41.374;2.066;2022-12-16T14:19:28;100107.38;;;16.48;55.95
56042;BME280;48756;41.374;2.066;2022-12-16T14:25:06;100117.50;;;16.58;56.03
56042;BME280;48756;41.374;2.066;2022-12-16T14:27:56;100118.56;;;16.53;56.04
56042;BME280;48756;41.374;2.066;2022-12-16T14:30:40;100119.34;;;16.35;55.91
56042;BME280;48756;41.374;2.066;2022-12-16T14:33:24;100120.13;;;16.17;56.18
56042;BME280;48756;41.374;2.066;2022-12-16T14:39:02;100120.13;;;16.37;56.48
56042;BME280;48756;41.374;2.066;2022-12-16T14:41:49;100128.03;;;16.37;56.43
56042;BME280;48756;41.374;2.066;2022-12-16T14:44:33;100126.56;;;16.10;56.71
56042;BME280;48756;41.374;2.066;2022-12-16T14:47:19;100133.88;;;16.44;55.83
56042;BME280;48756;41.374;2.066;2022-12-16T14:50:14;100132.88;;;16.26;56.57
56042;BME280;48756;41.374;2.066;2022-12-16T14:53:20;100136.69;;;16.39;56.49
56042;BME280;48756;41.374;2.066;2022-12-16T14:59:08;100148.41;;;16.32;56.79
56042;BME280;48756;41.374;2.066;2022-12-16T15:01:52;100141.56;;;16.48;57.13
56042;BME280;48756;41.374;2.066;2022-12-16T15:04:38;100152.59;;;16.16;57.14
56042;BME280;48756;41.374;2.066;2022-12-16T15:07:22;100152.22;;;16.03;57.72
56042;BME280;48756;41.374;2.066;2022-12-16T15:10:10;100151.75;;;16.15;57.39
56042;BME280;48756;41.374;2.066;2022-12-16T15:12:56;100159.50;;;16.18;58.55
56042;BME280;48756;41.374;2.066;2022-12-16T15:15:46;100165.03;;;16.33;58.28
56042;BME280;48756;41.374;2.066;2022-12-16T15:18:33;100162.34;;;16.34;57.86
56042;BME280;48756;41.374;2.066;2022-12-16T15:21:18;100165.16;;;16.30;58.25
56042;BME280;48756;41.374;2.066;2022-12-16T15:24:07;100167.41;;;16.59;57.89
56042;BME280;48756;41.374;2.066;2022-12-16T15:27:11;100168.47;;;16.35;57.62
56042;BME280;48756;41.374;2.066;2022-12-16T15:29:55;100180.38;;;16.21;58.65
56042;BME280;48756;41.374;2.066;2022-12-16T15:32:40;100180.63;;;16.37;58.29
56042;BME280;48756;41.374;2.066;2022-12-16T15:35:25;100190.94;;;16.42;58.67
56042;BME280;48756;41.374;2.066;2022-12-16T15:38:17;100186.66;;;16.39;58.42
56042;BME280;48756;41.374;2.066;2022-12-16T15:41:02;100200.50;;;16.01;59.34
56042;BME280;48756;41.374;2.066;2022-12-16T15:43:46;100200.84;;;15.93;60.37
56042;BME280;48756;41.374;2.066;2022-12-16T15:46:31;100208.59;;;15.96;60.37
56042;BME280;48756;41.374;2.066;2022-12-16T15:51:59;100203.81;;;16.06;60.78
56042;BME280;48756;41.374;2.066;2022-12-16T15:54:50;100208.97;;;15.87;60.91
56042;BME280;48756;41.374;2.066;2022-12-16T15:57:36;100205.63;;;15.82;61.75
56042;BME280;48756;41.374;2.066;2022-12-16T16:03:13;100210.81;;;15.83;61.16
56042;BME280;48756;41.374;2.066;2022-12-16T16:05:59;100210.63;;;15.89;61.49
56042;BME280;48756;41.374;2.066;2022-12-16T16:08:43;100217.50;;;15.70;62.59